createdAt,value
2018-11-01T03:47:00.598Z,98580.73
2018-11-01T03:47:39.715Z,98581.72
2018-11-01T03:48:19.151Z,98590.63
2018-11-01T03:48:58.570Z,98586.23
2018-11-01T03:49:38.144Z,98580.09
2018-11-01T03:50:17.605Z,98585.78
2018-11-01T03:50:56.145Z,98585.55
2018-11-01T03:51:34.972Z,98587.84
2018-11-01T03:52:14.607Z,98577.28
2018-11-01T03:52:53.682Z,98584.92
2018-11-01T03:53:33.777Z,98574.08
2018-11-01T03:54:59.625Z,98594.30
2018-11-01T03:55:38.220Z,98593.30
2018-11-01T03:56:17.266Z,98592.65
2018-11-01T03:56:56.697Z,98605.03
2018-11-01T03:57:36.266Z,98609.48
2018-11-01T03:58:16.430Z,98605.58
2018-11-01T03:58:55.704Z,98613.37
2018-11-01T03:59:35.268Z,98609.52
2018-11-01T04:00:18.289Z,98614.77
2018-11-01T04:00:57.780Z,98607.23
2018-11-01T04:01:36.710Z,98606.72
2018-11-01T04:02:15.849Z,98613.17
2018-11-01T04:02:55.281Z,98605.42
2018-11-01T04:03:35.332Z,98609.40
2018-11-01T04:04:14.700Z,98618.94
2018-11-01T04:04:54.272Z,98614.08
2018-11-01T04:05:33.751Z,98613.22
2018-11-01T04:07:02.339Z,98603.82
2018-11-01T04:08:04.271Z,98610.72
2018-11-01T04:08:44.406Z,98598.89
2018-11-01T04:09:23.792Z,98598.05
2018-11-01T04:10:03.680Z,98603.10
2018-11-01T04:10:44.271Z,98596.11
2018-11-01T04:11:23.822Z,98597.55
2018-11-01T04:14:22.349Z,98601.58
2018-11-01T04:16:31.848Z,98593.95
2018-11-01T04:18:40.279Z,98591.84
2018-11-01T04:21:27.273Z,98590.56
2018-11-01T04:23:37.026Z,98602.95
2018-11-01T04:25:46.817Z,98585.90
2018-11-01T04:27:56.829Z,98588.63
2018-11-01T04:30:06.394Z,98586.80
2018-11-01T04:32:15.705Z,98574.97
2018-11-01T04:34:25.713Z,98586.47
2018-11-01T04:36:35.281Z,98584.78
2018-11-01T04:38:44.848Z,98579.68
2018-11-01T04:40:55.061Z,98581.69
2018-11-01T04:43:04.737Z,98584.20
2018-11-01T04:45:14.904Z,98580.25
2018-11-01T04:47:23.024Z,98572.61
2018-11-01T04:49:33.635Z,98574.59
2018-11-01T04:51:43.280Z,98565.33
2018-11-01T04:53:53.089Z,98562.13
2018-11-01T04:58:20.709Z,98564.09
2018-11-01T05:00:30.282Z,98560.44
2018-11-01T05:02:40.276Z,98557.30
2018-11-01T05:04:49.858Z,98559.72
2018-11-01T05:06:59.301Z,98552.86
2018-11-01T05:09:10.290Z,98551.50
2018-11-01T05:11:20.279Z,98550.18
2018-11-01T05:13:29.760Z,98546.14
2018-11-01T05:15:39.367Z,98544.18
2018-11-01T05:17:49.278Z,98540.34
2018-11-01T05:19:58.716Z,98537.84
2018-11-01T05:22:08.405Z,98532.48
2018-11-01T05:24:18.288Z,98530.47
2018-11-01T05:26:27.713Z,98529.86
2018-11-01T05:28:37.394Z,98526.67
2018-11-01T05:30:47.047Z,98540.13
2018-11-01T05:32:57.378Z,98532.66
2018-11-01T05:35:07.105Z,98423.17
2018-11-01T05:37:17.598Z,98528.76
2018-11-01T05:39:26.839Z,98515.97
2018-11-01T05:41:36.283Z,98205.13
2018-11-01T05:43:45.826Z,98537.42
2018-11-01T05:45:55.718Z,98527.69
2018-11-01T05:48:05.284Z,98521.17
2018-11-01T05:50:14.788Z,98512.45
2018-11-01T05:52:24.555Z,98535.05
2018-11-01T05:54:34.282Z,98537.45
2018-11-01T05:56:43.880Z,98540.39
2018-11-01T05:58:53.361Z,98549.22
2018-11-01T06:01:04.786Z,98545.27
2018-11-01T06:03:14.288Z,98539.64
2018-11-01T06:05:24.096Z,98547.44
2018-11-01T06:07:37.768Z,98548.17
2018-11-01T06:09:47.407Z,98409.63
2018-11-01T06:11:56.786Z,98542.75
2018-11-01T06:14:08.830Z,98551.43
2018-11-01T06:16:18.723Z,98551.38
2018-11-01T06:18:28.301Z,98549.05
2018-11-01T06:20:38.413Z,98535.36
2018-11-01T06:22:49.283Z,98544.45
2018-11-01T06:25:00.292Z,98559.97
2018-11-01T06:27:10.281Z,98558.52
2018-11-01T06:29:19.838Z,98566.38
2018-11-01T06:31:29.631Z,98558.41
2018-11-01T06:33:39.730Z,98562.60
2018-11-01T06:35:51.682Z,98559.66
2018-11-01T06:38:01.593Z,98560.05
2018-11-01T06:40:11.290Z,98555.22
2018-11-01T06:42:20.857Z,98547.10
2018-11-01T06:44:30.585Z,98543.01
2018-11-01T06:46:40.279Z,98552.63
2018-11-01T06:48:50.281Z,98543.95
2018-11-01T06:50:59.713Z,98534.37
2018-11-01T06:53:09.282Z,98528.84
2018-11-01T06:55:18.723Z,98528.69
2018-11-01T06:57:28.512Z,98533.48
2018-11-01T06:59:38.286Z,98522.02
2018-11-01T07:01:48.099Z,98510.18
2018-11-01T07:03:57.712Z,98503.00
2018-11-01T07:06:07.481Z,98487.63
2018-11-01T07:08:17.836Z,98531.33
2018-11-01T07:10:27.274Z,98480.20
2018-11-01T07:12:36.803Z,98509.80
2018-11-01T07:14:46.288Z,98461.79
2018-11-01T07:16:55.831Z,98465.61
2018-11-01T07:19:04.353Z,98469.92
2018-11-01T07:21:13.812Z,98463.95
2018-11-01T07:23:24.101Z,98470.28
2018-11-01T07:25:33.945Z,98478.55
2018-11-01T07:27:43.866Z,98477.05
2018-11-01T07:29:53.714Z,98466.03
2018-11-01T07:32:03.520Z,98473.38
2018-11-01T07:34:13.619Z,98477.52
2018-11-01T07:36:23.391Z,98477.72
2018-11-01T07:38:32.806Z,98489.59
2018-11-01T07:40:42.705Z,98498.11
2018-11-01T07:42:52.276Z,98494.75
2018-11-01T07:45:01.802Z,98488.86
2018-11-01T07:47:11.698Z,98484.07
2018-11-01T07:49:21.691Z,98467.53
2018-11-01T07:51:30.884Z,98462.77
2018-11-01T07:53:40.286Z,98458.66
2018-11-01T07:55:49.823Z,98461.02
2018-11-01T07:57:59.284Z,98450.76
2018-11-01T08:00:12.285Z,98449.39
2018-11-01T08:02:22.113Z,98437.32
2018-11-01T08:04:32.432Z,98441.30
2018-11-01T08:06:42.277Z,98441.28
2018-11-01T08:08:52.293Z,98443.64
2018-11-01T08:11:01.716Z,98446.63
2018-11-01T08:13:10.727Z,98449.56
2018-11-01T08:15:22.296Z,98453.09
2018-11-01T08:17:32.296Z,98443.78
2018-11-01T08:19:41.895Z,98432.38
2018-11-01T08:21:49.652Z,98445.95
2018-11-01T08:23:59.547Z,98439.69
2018-11-01T08:26:09.294Z,98435.80
2018-11-01T08:28:19.287Z,98439.89
2018-11-01T08:30:28.803Z,98434.31
2018-11-01T08:32:38.608Z,98432.33
2018-11-01T08:34:48.422Z,98425.31
2018-11-01T08:36:58.288Z,98418.63
2018-11-01T08:39:09.301Z,98425.73
2018-11-01T08:41:19.292Z,98422.62
2018-11-01T08:43:29.077Z,98417.38
2018-11-01T08:45:39.288Z,98411.59
2018-11-01T08:47:48.721Z,98406.30
2018-11-01T08:49:58.878Z,98408.41
2018-11-01T08:52:08.598Z,98410.50
2018-11-01T08:54:18.289Z,98407.56
2018-11-01T08:56:28.088Z,98409.19
2018-11-01T08:58:37.722Z,98395.19
2018-11-01T09:00:47.296Z,98389.33
2018-11-01T09:02:57.544Z,98368.97
2018-11-01T09:05:06.930Z,98364.03
2018-11-01T09:07:14.824Z,98359.07
2018-11-01T09:09:25.243Z,98359.59
2018-11-01T09:11:34.709Z,98368.84
2018-11-01T09:13:44.290Z,98362.86
2018-11-01T09:15:53.767Z,98351.28
2018-11-01T09:18:03.288Z,98343.23
2018-11-01T09:20:13.428Z,98345.47
2018-11-01T09:22:23.283Z,98344.74
2018-11-01T09:24:32.857Z,98342.13
2018-11-01T09:26:42.846Z,98347.67
2018-11-01T09:28:52.878Z,98345.63
2018-11-01T09:31:02.683Z,98344.67
2018-11-01T09:33:12.278Z,98337.97
2018-11-01T09:35:21.814Z,98345.69
2018-11-01T09:37:31.708Z,98343.92
2018-11-01T09:39:41.349Z,98345.89
2018-11-01T09:41:51.285Z,98353.35
2018-11-01T09:44:01.566Z,98351.44
2018-11-01T09:46:12.168Z,98354.30
2018-11-01T09:48:22.280Z,98354.27
2018-11-01T09:50:31.876Z,98354.00
2018-11-01T09:52:41.878Z,98355.80
2018-11-01T09:54:51.707Z,98352.77
2018-11-01T09:57:01.287Z,98359.33
2018-11-01T09:59:11.381Z,98368.51
2018-11-01T10:01:21.721Z,98369.94
2018-11-01T10:03:31.409Z,98369.25
2018-11-01T10:07:09.711Z,98371.69
2018-11-01T10:09:19.284Z,98388.64
2018-11-01T10:13:12.898Z,98383.28
2018-11-01T10:15:20.735Z,98386.23
2018-11-01T10:17:30.937Z,98397.75
2018-11-01T10:19:40.277Z,98404.02
2018-11-01T10:21:50.747Z,98405.12
2018-11-01T10:24:00.720Z,98410.41
2018-11-01T10:26:11.532Z,98410.31
2018-11-01T10:28:21.524Z,98409.63
2018-11-01T10:30:31.386Z,98418.98
2018-11-01T10:32:40.902Z,98416.42
2018-11-01T10:34:48.644Z,98422.63
2018-11-01T10:36:58.665Z,98431.11
2018-11-01T10:39:10.278Z,98425.95
2018-11-01T10:41:20.099Z,98417.14
2018-11-01T10:43:29.843Z,98415.52
2018-11-01T10:45:39.740Z,98411.17
2018-11-01T10:47:50.316Z,98416.92
2018-11-01T10:50:00.092Z,98416.77
2018-11-01T10:52:09.782Z,98398.42
2018-11-01T10:54:19.799Z,98400.65
2018-11-01T10:58:47.542Z,98379.08
2018-11-01T11:01:01.796Z,98379.92
2018-11-01T11:03:11.869Z,98382.70
2018-11-01T11:05:23.900Z,98378.02
2018-11-01T11:07:31.632Z,98382.36
2018-11-01T11:09:41.268Z,98374.19
2018-11-01T11:11:50.689Z,98384.38
2018-11-01T11:14:00.299Z,98386.62
2018-11-01T11:16:09.840Z,98381.55
2018-11-01T11:18:19.272Z,98393.14
2018-11-01T11:20:28.980Z,98387.47
2018-11-01T11:22:38.361Z,98379.72
2018-11-01T11:24:48.493Z,98366.59
2018-11-01T11:26:58.081Z,98365.57
2018-11-01T11:29:07.698Z,98366.31
2018-11-01T11:31:17.365Z,98362.72
2018-11-01T11:33:27.397Z,98359.03
2018-11-01T11:35:37.290Z,98361.73
2018-11-01T11:37:47.404Z,98364.78
2018-11-01T11:39:57.268Z,98365.70
2018-11-01T11:42:07.281Z,98353.27
2018-11-01T11:44:16.771Z,98358.54
2018-11-01T11:46:26.655Z,98363.72
2018-11-01T11:48:36.276Z,98362.47
2018-11-01T11:50:45.898Z,98366.08
2018-11-01T11:52:54.209Z,98364.93
2018-11-01T11:55:04.116Z,98368.27
2018-11-01T11:57:14.332Z,98372.66
2018-11-01T11:59:23.836Z,98369.45
2018-11-01T12:01:33.723Z,98376.03
2018-11-01T12:03:43.517Z,98247.31
2018-11-01T12:05:53.412Z,98367.33
2018-11-01T12:08:02.851Z,98363.86
2018-11-01T12:10:14.280Z,98374.10
2018-11-01T12:12:24.707Z,98375.45
2018-11-01T12:14:34.277Z,98387.66
2018-11-01T12:16:44.565Z,98387.42
2018-11-01T12:18:54.645Z,98378.88
2018-11-01T12:21:04.560Z,98370.73
2018-11-01T12:23:14.284Z,98373.91
2018-11-01T12:25:24.096Z,98372.63
2018-11-01T12:27:33.713Z,98364.50
2018-11-01T12:29:43.646Z,98356.53
2018-11-01T12:31:53.284Z,98346.97
2018-11-01T12:34:02.721Z,98346.95
2018-11-01T12:36:12.391Z,98339.61
2018-11-01T12:38:21.706Z,98328.51
2018-11-01T12:40:31.276Z,98320.78
2018-11-01T12:42:41.282Z,98336.92
2018-11-01T12:44:51.609Z,98341.55
2018-11-01T12:47:01.280Z,98336.44
2018-11-01T12:49:11.273Z,98333.52
2018-11-01T12:51:21.265Z,98336.45
2018-11-01T12:53:31.565Z,98350.94
2018-11-01T12:55:41.596Z,98354.91
2018-11-01T12:57:51.347Z,98360.00
2018-11-01T13:00:00.836Z,98360.59
2018-11-01T13:02:10.275Z,98370.56
2018-11-01T13:04:20.277Z,98377.66
2018-11-01T13:06:30.288Z,98373.27
2018-11-01T13:08:40.276Z,98370.87
2018-11-01T13:10:50.613Z,98370.63
2018-11-01T13:13:00.406Z,98383.60
2018-11-01T13:15:11.712Z,98373.71
2018-11-01T13:17:22.861Z,98373.88
2018-11-01T13:19:32.456Z,98360.28
2018-11-01T13:21:42.281Z,98366.20
2018-11-01T13:23:51.700Z,98369.66
2018-11-01T13:26:01.522Z,98377.86
2018-11-01T13:28:10.831Z,98380.38
2018-11-01T13:30:20.550Z,98385.78
2018-11-01T13:32:31.723Z,98388.27
2018-11-01T13:34:40.773Z,98393.34
2018-11-01T13:36:50.590Z,98387.42
2018-11-01T13:39:01.110Z,98391.74
2018-11-01T13:41:11.229Z,98386.14
2018-11-01T13:43:20.843Z,98390.34
2018-11-01T13:45:30.443Z,98433.91
2018-11-01T13:47:40.308Z,98369.63
2018-11-01T13:49:50.271Z,98353.54
2018-11-01T13:52:00.140Z,98335.57
2018-11-01T13:54:10.101Z,98334.66
2018-11-01T13:56:19.768Z,98338.06
2018-11-01T13:58:29.747Z,98347.22
2018-11-01T14:00:39.385Z,98366.64
2018-11-01T14:02:49.272Z,98363.11
2018-11-01T14:04:59.587Z,98345.44
2018-11-01T14:07:09.921Z,98325.19
2018-11-01T14:09:17.616Z,98310.36
2018-11-01T14:11:27.275Z,98299.34
2018-11-01T14:13:36.861Z,98296.46
2018-11-01T14:15:44.637Z,98291.78
2018-11-01T14:17:54.270Z,98289.70
2018-11-01T14:20:04.269Z,98280.62
2018-11-01T14:22:13.807Z,98261.17
2018-11-01T14:24:23.510Z,98240.08
2018-11-01T14:26:33.414Z,98220.13
2018-11-01T14:28:42.821Z,98220.59
2018-11-01T14:30:52.345Z,98237.72
2018-11-01T14:33:02.070Z,98251.51
2018-11-01T14:35:13.092Z,98256.95
2018-11-01T14:37:22.373Z,98259.91
2018-11-01T14:39:31.929Z,98252.58
2018-11-01T14:41:39.634Z,98277.09
2018-11-01T14:43:49.273Z,98285.77
2018-11-01T14:45:59.554Z,98271.02
2018-11-01T14:48:09.498Z,98287.19
2018-11-01T14:50:19.274Z,98296.15
2018-11-01T14:52:29.832Z,98285.75
2018-11-01T14:54:40.733Z,98289.08
2018-11-01T14:56:49.687Z,98306.52
2018-11-01T14:59:00.134Z,98320.80
2018-11-01T15:01:08.281Z,98314.79
2018-11-01T15:03:17.921Z,98304.22
2018-11-01T15:05:26.064Z,98303.52
2018-11-01T15:07:35.715Z,98287.55
2018-11-01T15:09:45.867Z,98269.53
2018-11-01T15:11:55.276Z,98246.73
2018-11-01T15:14:04.746Z,98240.58
2018-11-01T15:16:14.395Z,98231.78
2018-11-01T15:18:24.274Z,98228.98
2018-11-01T15:20:33.739Z,98230.08
2018-11-01T15:22:44.372Z,98211.17
2018-11-01T15:24:53.898Z,98231.09
2018-11-01T15:27:01.926Z,98217.52
2018-11-01T15:29:11.596Z,98208.94
2018-11-01T15:31:21.277Z,98199.81
2018-11-01T15:33:31.343Z,98180.36
2018-11-01T15:35:41.373Z,98175.04
2018-11-01T15:37:51.563Z,98193.23
2018-11-01T15:40:01.796Z,98182.73
2018-11-01T15:42:11.732Z,98188.69
2018-11-01T15:44:21.281Z,98199.58
2018-11-01T15:46:30.722Z,98207.22
2018-11-01T15:48:41.288Z,98193.33
2018-11-01T15:50:51.286Z,98193.81
2018-11-01T15:53:01.279Z,98205.88
2018-11-01T15:55:11.663Z,98220.48
2018-11-01T15:57:21.270Z,98225.87
2018-11-01T15:59:30.980Z,98237.38
2018-11-01T16:01:40.757Z,98245.48
2018-11-01T16:03:50.308Z,98243.78
2018-11-01T16:06:00.278Z,98233.88
2018-11-01T16:08:09.784Z,98222.03
2018-11-01T16:10:21.716Z,98219.97
2018-11-01T16:12:31.894Z,98211.68
2018-11-01T16:14:41.719Z,98206.98
2018-11-01T16:16:51.282Z,98217.23
2018-11-01T16:19:01.715Z,98232.85
2018-11-01T16:21:11.394Z,98222.78
2018-11-01T16:23:20.779Z,98237.30
2018-11-01T16:25:30.584Z,98227.59
2018-11-01T16:27:40.286Z,98232.30
2018-11-01T16:29:50.278Z,98213.06
2018-11-01T16:32:00.429Z,98201.19
2018-11-01T16:34:10.397Z,98191.77
2018-11-01T16:36:20.295Z,98194.06
2018-11-01T16:38:29.889Z,98209.33
2018-11-01T16:40:40.714Z,98218.86
2018-11-01T16:42:50.859Z,98218.02
2018-11-01T16:44:58.783Z,98221.62
2018-11-01T16:47:09.097Z,98213.82
2018-11-01T16:49:18.374Z,98215.23
2018-11-01T16:51:27.528Z,98207.27
2018-11-01T16:53:37.278Z,98210.28
2018-11-01T16:55:46.890Z,98217.45
2018-11-01T16:57:54.705Z,98207.47
2018-11-01T17:00:05.107Z,98199.73
2018-11-01T17:02:14.881Z,98208.91
2018-11-01T17:04:22.696Z,98197.63
2018-11-01T17:06:32.409Z,98201.59
2018-11-01T17:08:42.412Z,98200.65
2018-11-01T17:10:52.734Z,98183.05
2018-11-01T17:13:02.781Z,98180.05
2018-11-01T17:15:15.171Z,98186.34
2018-11-01T17:17:25.224Z,98192.82
2018-11-01T17:19:34.880Z,98192.27
2018-11-01T17:21:43.232Z,98170.89
2018-11-01T17:23:52.858Z,98165.66
2018-11-01T17:26:02.356Z,98165.66
2018-11-01T17:28:12.451Z,98172.63
2018-11-01T17:30:22.948Z,98161.73
2018-11-01T17:32:33.120Z,98167.16
2018-11-01T17:34:42.926Z,98169.86
2018-11-01T17:36:50.721Z,98164.94
2018-11-01T17:39:00.728Z,98167.48
2018-11-01T17:41:10.644Z,98159.14
2018-11-01T17:43:20.768Z,98148.07
2018-11-01T17:45:30.777Z,98136.41
2018-11-01T17:47:40.785Z,98134.13
2018-11-01T17:49:50.412Z,98136.89
2018-11-01T17:52:00.761Z,98134.65
2018-11-01T17:54:14.408Z,98132.47
2018-11-01T17:56:24.388Z,98145.23
2018-11-01T17:58:34.271Z,98136.57
2018-11-01T18:00:43.713Z,98122.29
2018-11-01T18:02:54.458Z,98134.97
2018-11-01T18:05:04.709Z,98126.40
2018-11-01T18:07:14.856Z,98126.94
2018-11-01T18:09:24.534Z,98134.39
2018-11-01T18:11:34.419Z,98121.34
2018-11-01T18:13:44.303Z,98131.84
2018-11-01T18:15:55.070Z,98122.16
2018-11-01T18:18:05.325Z,98133.67
2018-11-01T18:20:16.277Z,98141.30
2018-11-01T18:22:25.724Z,98120.94
2018-11-01T18:24:36.284Z,98111.74
2018-11-01T18:26:46.852Z,98100.55
2018-11-01T18:28:56.413Z,98093.13
2018-11-01T18:31:06.539Z,98085.28
2018-11-01T18:33:16.836Z,98086.97
2018-11-01T18:35:26.849Z,98094.30
2018-11-01T18:37:36.288Z,98073.95
2018-11-01T18:39:46.428Z,98065.56
2018-11-01T18:41:56.274Z,98060.25
2018-11-01T18:44:08.816Z,98056.30
2018-11-01T18:46:18.718Z,98047.55
2018-11-01T18:50:29.590Z,98032.23
2018-11-01T18:52:39.608Z,98019.85
2018-11-01T18:54:49.280Z,98013.22
2018-11-01T18:56:58.868Z,97367.47
2018-11-01T18:59:08.411Z,97998.98
2018-11-01T19:01:18.692Z,98002.46
2018-11-01T19:03:32.654Z,97987.56
2018-11-01T19:05:42.438Z,97973.20
2018-11-01T19:07:52.280Z,97983.09
2018-11-01T19:10:02.280Z,97985.38
2018-11-01T19:12:12.254Z,97981.56
2018-11-01T19:14:22.338Z,97986.92
2018-11-01T19:16:32.275Z,97984.21
2018-11-01T19:18:42.369Z,97987.48
2018-11-01T19:20:52.286Z,97988.36
2018-11-01T19:23:02.275Z,97998.95
2018-11-01T19:25:12.725Z,97996.56
2018-11-01T19:27:22.736Z,97998.45
2018-11-01T19:29:33.095Z,98008.67
2018-11-01T19:31:42.849Z,98005.98
2018-11-01T19:33:52.481Z,98005.52
2018-11-01T19:36:01.827Z,98001.75
2018-11-01T19:38:11.598Z,98009.67
2018-11-01T19:40:21.351Z,98008.89
2018-11-01T19:42:31.729Z,98009.23
2018-11-01T19:44:41.581Z,98000.19
2018-11-01T19:46:51.415Z,98006.52
2018-11-01T19:49:01.286Z,97999.64
2018-11-01T19:51:10.710Z,97999.58
2018-11-01T19:53:20.537Z,98002.80
2018-11-01T19:55:30.524Z,98004.92
2018-11-01T19:57:39.785Z,97994.92
2018-11-01T19:59:49.277Z,98009.13
2018-11-01T20:01:59.280Z,98017.15
2018-11-01T20:04:09.296Z,98014.89
2018-11-01T20:06:19.291Z,98016.47
2018-11-01T20:08:28.937Z,98032.77
2018-11-01T20:10:36.889Z,98037.91
2018-11-01T20:12:46.810Z,98038.47
2018-11-01T20:14:56.717Z,98040.89
2018-11-01T20:17:06.775Z,98046.85
2018-11-01T20:19:16.919Z,98047.98
2018-11-01T20:21:26.735Z,98040.25
2018-11-01T20:23:36.283Z,98053.83
2018-11-01T20:25:45.995Z,98061.66
2018-11-01T20:27:55.879Z,98048.67
2018-11-01T20:30:05.299Z,98042.87
2018-11-01T20:34:35.806Z,98019.20
2018-11-01T20:36:45.290Z,98016.57
2018-11-01T20:38:55.291Z,98024.07
2018-11-01T20:41:04.860Z,98019.92
2018-11-01T20:43:14.732Z,98018.63
2018-11-01T20:45:24.890Z,98030.83
2018-11-01T20:47:34.295Z,98032.53
2018-11-01T20:49:43.723Z,98031.52
2018-11-01T20:51:53.589Z,98013.70
2018-11-01T20:54:04.108Z,98019.09
2018-11-01T20:56:13.810Z,98006.02
2018-11-01T20:58:23.516Z,98016.64
2018-11-01T21:00:33.284Z,98019.02
2018-11-01T21:02:43.745Z,98026.26
2018-11-01T21:04:53.816Z,98019.65
2018-11-01T21:07:03.585Z,98013.61
2018-11-01T21:09:14.730Z,98000.64
2018-11-01T21:11:24.863Z,98009.61
2018-11-01T21:13:34.599Z,98008.31
2018-11-01T21:15:44.724Z,98013.00
2018-11-01T21:17:54.698Z,98015.98
2018-11-01T21:20:04.302Z,98017.80
2018-11-01T21:22:16.858Z,98019.97
2018-11-01T21:24:25.020Z,98040.52
2018-11-01T21:26:35.720Z,98045.32
2018-11-01T21:28:45.701Z,98047.41
2018-11-01T21:30:55.384Z,98042.53
2018-11-01T21:33:05.752Z,98044.13
2018-11-01T21:35:15.857Z,98047.09
2018-11-01T21:37:25.645Z,98040.19
2018-11-01T21:39:35.410Z,98039.94
2018-11-01T21:41:44.719Z,98051.77
2018-11-01T21:43:54.292Z,98053.09
2018-11-01T21:46:03.734Z,98051.13
2018-11-01T21:48:13.419Z,98057.44
2018-11-01T21:50:22.867Z,98053.99
2018-11-01T21:52:32.375Z,98067.89
2018-11-01T21:54:42.287Z,98059.52
2018-11-01T21:56:51.773Z,98060.23
2018-11-01T21:59:01.573Z,98055.70
2018-11-01T22:01:11.293Z,98042.05
2018-11-01T22:03:21.093Z,98034.11
2018-11-01T22:05:30.528Z,98031.16
2018-11-01T22:07:40.732Z,98036.11
2018-11-01T22:09:50.664Z,98030.39
2018-11-01T22:12:00.366Z,98036.78
2018-11-01T22:14:10.825Z,98043.48
2018-11-01T22:16:20.309Z,98046.73
2018-11-01T22:18:29.731Z,98058.92
2018-11-01T22:20:39.655Z,98069.99
2018-11-01T22:22:49.288Z,98068.78
2018-11-01T22:24:59.283Z,98060.65
2018-11-01T22:27:08.866Z,98060.31
2018-11-01T22:29:18.305Z,98065.02
2018-11-01T22:31:28.645Z,98055.03
2018-11-01T22:33:38.569Z,98055.74
2018-11-01T22:35:48.724Z,98051.91
2018-11-01T22:37:58.835Z,98048.42
2018-11-01T22:40:08.758Z,98042.80
2018-11-01T22:42:18.654Z,98042.19
2018-11-01T22:44:28.839Z,98041.36
2018-11-01T22:46:38.714Z,98026.72
2018-11-01T22:48:48.295Z,98031.63
2018-11-01T22:50:57.884Z,98032.84
2018-11-01T22:53:07.813Z,98023.05
2018-11-01T22:57:11.303Z,98030.53
2018-11-01T22:59:21.376Z,98040.16
2018-11-01T23:01:31.293Z,98041.33
2018-11-01T23:03:40.862Z,98041.31
2018-11-01T23:05:50.291Z,98049.12
2018-11-01T23:08:00.328Z,98055.09
2018-11-01T23:10:12.839Z,98063.88
2018-11-01T23:12:22.387Z,98063.78
2018-11-01T23:14:32.304Z,98064.52
2018-11-01T23:16:41.858Z,98055.09
2018-11-01T23:18:51.876Z,98054.59
2018-11-01T23:21:01.649Z,98053.91
2018-11-01T23:23:11.430Z,98059.03
2018-11-01T23:25:21.112Z,98052.15
2018-11-01T23:27:30.622Z,98064.11
2018-11-01T23:29:41.292Z,98060.96
2018-11-01T23:31:51.297Z,98068.45
2018-11-01T23:34:01.704Z,98073.25
2018-11-01T23:36:09.619Z,98074.56
2018-11-01T23:38:23.712Z,98078.94
2018-11-01T23:40:38.672Z,98087.30
2018-11-01T23:42:52.726Z,98085.16
2018-11-01T23:45:06.884Z,98084.14
2018-11-01T23:47:20.697Z,98080.64
2018-11-01T23:49:35.036Z,98086.19
2018-11-01T23:51:45.119Z,98085.95
2018-11-01T23:53:54.759Z,98075.44
2018-11-01T23:56:04.731Z,98082.37
2018-11-01T23:58:14.718Z,98079.78
